sensor_id;sensor_type;location;lat;lon;timestamp;P1;durP1;ratioP1;P2;durP2;ratioP2
30458;SDS011;17254;50.976;7.034;2023-03-22T00:00:05;10.05;;;6.68;;
30458;SDS011;17254;50.976;7.034;2023-03-22T00:00:16;10.20;;;6.61;;
30458;SDS011;17254;50.976;7.034;2023-03-22T00:00:23;9.62;;;6.50;;
30458;SDS011;17254;50.976;7.034;2023-03-22T00:00:31;9.00;;;6.57;;
30458;SDS011;17254;50.976;7.034;2023-03-22T00:00:38;8.77;;;6.77;;
30458;SDS011;17254;50.976;7.034;2023-03-22T00:00:44;8.23;;;6.70;;
30458;SDS011;17254;50.976;7.034;2023-03-22T00:00:51;8.25;;;6.90;;
30458;SDS011;17254;50.976;7.034;2023-03-22T00:00:57;8.44;;;6.82;;
30458;SDS011;17254;50.976;7.034;2023-03-22T00:01:07;9.17;;;6.97;;
30458;SDS011;17254;50.976;7.034;2023-03-22T00:01:15;9.27;;;6.86;;
30458;SDS011;17254;50.976;7.034;2023-03-22T00:01:23;10.30;;;6.87;;
30458;SDS011;17254;50.976;7.034;2023-03-22T00:01:32;10.20;;;6.85;;
30458;SDS011;17254;50.976;7.034;2023-03-22T00:01:38;10.32;;;6.72;;
30458;SDS011;17254;50.976;7.034;2023-03-22T00:01:45;12.07;;;6.60;;
30458;SDS011;17254;50.976;7.034;2023-03-22T00:01:51;10.98;;;6.38;;
30458;SDS011;17254;50.976;7.034;2023-03-22T00:01:57;10.50;;;6.20;;
30458;SDS011;17254;50.976;7.034;2023-03-22T00:02:03;9.88;;;6.15;;
30458;SDS011;17254;50.976;7.034;2023-03-22T00:02:09;9.43;;;6.18;;
30458;SDS011;17254;50.976;7.034;2023-03-22T00:02:15;7.88;;;6.13;;
30458;SDS011;17254;50.976;7.034;2023-03-22T00:02:21;7.78;;;6.15;;
30458;SDS011;17254;50.976;7.034;2023-03-22T00:02:27;7.75;;;6.15;;
30458;SDS011;17254;50.976;7.034;2023-03-22T00:02:34;7.74;;;6.20;;
30458;SDS011;17254;50.976;7.034;2023-03-22T00:02:40;7.50;;;6.20;;
30458;SDS011;17254;50.976;7.034;2023-03-22T00:02:46;7.63;;;6.28;;
30458;SDS011;17254;50.976;7.034;2023-03-22T00:02:52;8.20;;;6.57;;
30458;SDS011;17254;50.976;7.034;2023-03-22T00:02:59;8.13;;;6.60;;
30458;SDS011;17254;50.976;7.034;2023-03-22T00:03:05;8.10;;;6.55;;
30458;SDS011;17254;50.976;7.034;2023-03-22T00:03:12;8.10;;;6.65;;
30458;SDS011;17254;50.976;7.034;2023-03-22T00:03:18;8.13;;;6.88;;
30458;SDS011;17254;50.976;7.034;2023-03-22T00:03:25;8.04;;;6.88;;
30458;SDS011;17254;50.976;7.034;2023-03-22T00:03:31;8.70;;;7.00;;
30458;SDS011;17254;50.976;7.034;2023-03-22T00:03:37;10.20;;;7.18;;
30458;SDS011;17254;50.976;7.034;2023-03-22T00:03:43;10.27;;;7.15;;
30458;SDS011;17254;50.976;7.034;2023-03-22T00:03:50;11.14;;;7.06;;
30458;SDS011;17254;50.976;7.034;2023-03-22T00:03:56;11.20;;;6.73;;
30458;SDS011;17254;50.976;7.034;2023-03-22T00:04:03;10.90;;;6.60;;
30458;SDS011;17254;50.976;7.034;2023-03-22T00:04:10;10.05;;;6.40;;
30458;SDS011;17254;50.976;7.034;2023-03-22T00:04:16;9.85;;;6.30;;
30458;SDS011;17254;50.976;7.034;2023-03-22T00:04:22;9.63;;;6.30;;
30458;SDS011;17254;50.976;7.034;2023-03-22T00:04:28;9.10;;;6.50;;
30458;SDS011;17254;50.976;7.034;2023-03-22T00:04:34;8.93;;;6.45;;
30458;SDS011;17254;50.976;7.034;2023-03-22T00:04:40;9.50;;;6.47;;
30458;SDS011;17254;50.976;7.034;2023-03-22T00:04:46;8.80;;;6.30;;
30458;SDS011;17254;50.976;7.034;2023-03-22T00:04:53;8.17;;;6.17;;
30458;SDS011;17254;50.976;7.034;2023-03-22T00:04:59;8.30;;;6.23;;
30458;SDS011;17254;50.976;7.034;2023-03-22T00:05:05;8.00;;;6.20;;
30458;SDS011;17254;50.976;7.034;2023-03-22T00:05:12;7.56;;;6.26;;
30458;SDS011;17254;50.976;7.034;2023-03-22T00:05:18;7.93;;;6.50;;
30458;SDS011;17254;50.976;7.034;2023-03-22T00:05:24;8.52;;;6.68;;
30458;SDS011;17254;50.976;7.034;2023-03-22T00:05:30;8.35;;;6.47;;
30458;SDS011;17254;50.976;7.034;2023-03-22T00:05:37;8.30;;;6.56;;
30458;SDS011;17254;50.976;7.034;2023-03-22T00:05:44;8.70;;;6.57;;
30458;SDS011;17254;50.976;7.034;2023-03-22T00:05:55;8.30;;;6.47;;
30458;SDS011;17254;50.976;7.034;2023-03-22T00:06:02;8.41;;;6.60;;
30458;SDS011;17254;50.976;7.034;2023-03-22T00:06:08;11.87;;;7.47;;
30458;SDS011;17254;50.976;7.034;2023-03-22T00:06:14;12.43;;;7.43;;
30458;SDS011;17254;50.976;7.034;2023-03-22T00:06:20;12.75;;;7.40;;
30458;SDS011;17254;50.976;7.034;2023-03-22T00:06:26;12.85;;;7.40;;
30458;SDS011;17254;50.976;7.034;2023-03-22T00:06:32;12.95;;;7.28;;
30458;SDS011;17254;50.976;7.034;2023-03-22T00:06:38;10.55;;;6.82;;
30458;SDS011;17254;50.976;7.034;2023-03-22T00:06:44;10.17;;;7.03;;
30458;SDS011;17254;50.976;7.034;2023-03-22T00:06:51;9.96;;;6.98;;
30458;SDS011;17254;50.976;7.034;2023-03-22T00:06:57;9.73;;;7.07;;
30458;SDS011;17254;50.976;7.034;2023-03-22T00:07:03;9.05;;;6.95;;
30458;SDS011;17254;50.976;7.034;2023-03-22T00:07:09;8.43;;;6.83;;
30458;SDS011;17254;50.976;7.034;2023-03-22T00:07:15;8.18;;;6.63;;
30458;SDS011;17254;50.976;7.034;2023-03-22T00:07:21;8.73;;;6.80;;
30458;SDS011;17254;50.976;7.034;2023-03-22T00:07:27;9.23;;;6.72;;
30458;SDS011;17254;50.976;7.034;2023-03-22T00:07:33;9.55;;;6.80;;
30458;SDS011;17254;50.976;7.034;2023-03-22T00:07:39;10.15;;;6.82;;
30458;SDS011;17254;50.976;7.034;2023-03-22T00:07:45;10.13;;;6.90;;
30458;SDS011;17254;50.976;7.034;2023-03-22T00:07:54;9.53;;;6.67;;
30458;SDS011;17254;50.976;7.034;2023-03-22T00:08:02;9.20;;;6.73;;
30458;SDS011;17254;50.976;7.034;2023-03-22T00:08:11;9.17;;;7.00;;
30458;SDS011;17254;50.976;7.034;2023-03-22T00:08:17;8.76;;;6.90;;
30458;SDS011;17254;50.976;7.034;2023-03-22T00:08:23;8.95;;;7.07;;
30458;SDS011;17254;50.976;7.034;2023-03-22T00:08:30;9.37;;;7.30;;
30458;SDS011;17254;50.976;7.034;2023-03-22T00:08:36;9.30;;;7.30;;
30458;SDS011;17254;50.976;7.034;2023-03-22T00:08:43;9.02;;;6.90;;
30458;SDS011;17254;50.976;7.034;2023-03-22T00:08:49;8.90;;;6.84;;
30458;SDS011;17254;50.976;7.034;2023-03-22T00:08:57;8.50;;;6.58;;
30458;SDS011;17254;50.976;7.034;2023-03-22T00:09:03;8.00;;;6.30;;
30458;SDS011;17254;50.976;7.034;2023-03-22T00:09:10;7.94;;;6.30;;
30458;SDS011;17254;50.976;7.034;2023-03-22T00:09:15;8.48;;;6.63;;
30458;SDS011;17254;50.976;7.034;2023-03-22T00:09:22;9.07;;;6.77;;
30458;SDS011;17254;50.976;7.034;2023-03-22T00:09:28;9.20;;;6.73;;
30458;SDS011;17254;50.976;7.034;2023-03-22T00:09:34;9.13;;;6.67;;
30458;SDS011;17254;50.976;7.034;2023-03-22T00:09:41;9.20;;;6.68;;
30458;SDS011;17254;50.976;7.034;2023-03-22T00:09:47;9.10;;;6.43;;
30458;SDS011;17254;50.976;7.034;2023-03-22T00:09:53;8.98;;;6.38;;
30458;SDS011;17254;50.976;7.034;2023-03-22T00:09:59;9.00;;;6.72;;
30458;SDS011;17254;50.976;7.034;2023-03-22T00:10:06;9.68;;;7.07;;
30458;SDS011;17254;50.976;7.034;2023-03-22T00:10:12;10.02;;;6.94;;
30458;SDS011;17254;50.976;7.034;2023-03-22T00:10:18;10.50;;;6.90;;
30458;SDS011;17254;50.976;7.034;2023-03-22T00:10:25;10.55;;;6.95;;
30458;SDS011;17254;50.976;7.034;2023-03-22T00:10:33;10.23;;;6.40;;
30458;SDS011;17254;50.976;7.034;2023-03-22T00:10:41;10.28;;;6.50;;
30458;SDS011;17254;50.976;7.034;2023-03-22T00:10:47;11.80;;;6.80;;
30458;SDS011;17254;50.976;7.034;2023-03-22T00:10:53;12.55;;;7.03;;
30458;SDS011;17254;50.976;7.034;2023-03-22T00:11:00;12.77;;;7.20;;
30458;SDS011;17254;50.976;7.034;2023-03-22T00:11:07;12.77;;;7.25;;
30458;SDS011;17254;50.976;7.034;2023-03-22T00:11:13;11.93;;;7.30;;
30458;SDS011;17254;50.976;7.034;2023-03-22T00:11:21;10.84;;;7.38;;
30458;SDS011;17254;50.976;7.034;2023-03-22T00:11:28;10.52;;;7.12;;
30458;SDS011;17254;50.976;7.034;2023-03-22T00:11:34;10.90;;;7.07;;
30458;SDS011;17254;50.976;7.034;2023-03-22T00:11:40;10.53;;;7.13;;
30458;SDS011;17254;50.976;7.034;2023-03-22T00:11:46;10.35;;;6.78;;
30458;SDS011;17254;50.976;7.034;2023-03-22T00:11:54;9.43;;;6.80;;
30458;SDS011;17254;50.976;7.034;2023-03-22T00:12:00;9.23;;;6.80;;
30458;SDS011;17254;50.976;7.034;2023-03-22T00:12:07;9.50;;;6.77;;
30458;SDS011;17254;50.976;7.034;2023-03-22T00:12:12;9.63;;;6.78;;
30458;SDS011;17254;50.976;7.034;2023-03-22T00:12:18;9.93;;;6.90;;
30458;SDS011;17254;50.976;7.034;2023-03-22T00:12:24;10.27;;;6.68;;
30458;SDS011;17254;50.976;7.034;2023-03-22T00:12:30;10.10;;;6.57;;
30458;SDS011;17254;50.976;7.034;2023-03-22T00:12:36;9.63;;;6.50;;
30458;SDS011;17254;50.976;7.034;2023-03-22T00:12:42;10.23;;;6.67;;
30458;SDS011;17254;50.976;7.034;2023-03-22T00:12:49;10.00;;;6.70;;
30458;SDS011;17254;50.976;7.034;2023-03-22T00:12:55;10.03;;;6.77;;
30458;SDS011;17254;50.976;7.034;2023-03-22T00:13:02;10.23;;;6.82;;
30458;SDS011;17254;50.976;7.034;2023-03-22T00:13:08;10.27;;;6.90;;
30458;SDS011;17254;50.976;7.034;2023-03-22T00:13:15;9.97;;;7.00;;
30458;SDS011;17254;50.976;7.034;2023-03-22T00:13:21;9.90;;;6.97;;
30458;SDS011;17254;50.976;7.034;2023-03-22T00:13:27;9.15;;;7.00;;
30458;SDS011;17254;50.976;7.034;2023-03-22T00:13:33;9.73;;;7.15;;
30458;SDS011;17254;50.976;7.034;2023-03-22T00:13:41;10.30;;;7.17;;
30458;SDS011;17254;50.976;7.034;2023-03-22T00:13:48;10.33;;;6.97;;
30458;SDS011;17254;50.976;7.034;2023-03-22T00:13:56;10.47;;;6.97;;
30458;SDS011;17254;50.976;7.034;2023-03-22T00:14:03;10.88;;;6.90;;
30458;SDS011;17254;50.976;7.034;2023-03-22T00:14:10;10.40;;;6.94;;
30458;SDS011;17254;50.976;7.034;2023-03-22T00:14:16;10.45;;;6.95;;
30458;SDS011;17254;50.976;7.034;2023-03-22T00:14:22;10.37;;;7.13;;
30458;SDS011;17254;50.976;7.034;2023-03-22T00:14:28;9.83;;;6.90;;
30458;SDS011;17254;50.976;7.034;2023-03-22T00:14:34;9.80;;;6.70;;
30458;SDS011;17254;50.976;7.034;2023-03-22T00:14:40;10.13;;;6.50;;
30458;SDS011;17254;50.976;7.034;2023-03-22T00:14:47;10.98;;;6.57;;
30458;SDS011;17254;50.976;7.034;2023-03-22T00:14:53;11.15;;;6.47;;
30458;SDS011;17254;50.976;7.034;2023-03-22T00:14:59;11.70;;;6.75;;
30458;SDS011;17254;50.976;7.034;2023-03-22T00:15:05;11.65;;;7.00;;
30458;SDS011;17254;50.976;7.034;2023-03-22T00:15:12;11.64;;;7.10;;
30458;SDS011;17254;50.976;7.034;2023-03-22T00:15:19;10.30;;;7.27;;
30458;SDS011;17254;50.976;7.034;2023-03-22T00:15:26;9.98;;;7.14;;
30458;SDS011;17254;50.976;7.034;2023-03-22T00:15:34;9.20;;;6.90;;
30458;SDS011;17254;50.976;7.034;2023-03-22T00:15:41;9.47;;;6.93;;
30458;SDS011;17254;50.976;7.034;2023-03-22T00:15:49;9.03;;;6.69;;
30458;SDS011;17254;50.976;7.034;2023-03-22T00:15:55;8.87;;;6.50;;
30458;SDS011;17254;50.976;7.034;2023-03-22T00:16:01;8.90;;;6.63;;
30458;SDS011;17254;50.976;7.034;2023-03-22T00:16:08;8.38;;;6.63;;
30458;SDS011;17254;50.976;7.034;2023-03-22T00:16:17;8.74;;;6.91;;
30458;SDS011;17254;50.976;7.034;2023-03-22T00:16:23;10.40;;;7.35;;
30458;SDS011;17254;50.976;7.034;2023-03-22T00:16:29;11.20;;;7.63;;
30458;SDS011;17254;50.976;7.034;2023-03-22T00:16:35;11.88;;;7.65;;
30458;SDS011;17254;50.976;7.034;2023-03-22T00:16:41;12.13;;;7.75;;
30458;SDS011;17254;50.976;7.034;2023-03-22T00:16:47;10.60;;;7.47;;
30458;SDS011;17254;50.976;7.034;2023-03-22T00:16:54;9.70;;;7.38;;
30458;SDS011;17254;50.976;7.034;2023-03-22T00:17:02;8.57;;;7.10;;
30458;SDS011;17254;50.976;7.034;2023-03-22T00:17:08;9.03;;;7.30;;
30458;SDS011;17254;50.976;7.034;2023-03-22T00:17:14;9.20;;;7.20;;
30458;SDS011;17254;50.976;7.034;2023-03-22T00:17:20;9.60;;;7.40;;
30458;SDS011;17254;50.976;7.034;2023-03-22T00:17:27;9.93;;;7.47;;
30458;SDS011;17254;50.976;7.034;2023-03-22T00:17:34;9.77;;;7.53;;
30458;SDS011;17254;50.976;7.034;2023-03-22T00:17:40;8.88;;;7.30;;
30458;SDS011;17254;50.976;7.034;2023-03-22T00:17:48;8.86;;;7.24;;
30458;SDS011;17254;50.976;7.034;2023-03-22T00:17:54;9.02;;;7.30;;
30458;SDS011;17254;50.976;7.034;2023-03-22T00:18:01;9.27;;;7.30;;
30458;SDS011;17254;50.976;7.034;2023-03-22T00:18:10;9.82;;;7.27;;
30458;SDS011;17254;50.976;7.034;2023-03-22T00:18:16;10.37;;;7.50;;
30458;SDS011;17254;50.976;7.034;2023-03-22T00:18:24;10.06;;;7.44;;
30458;SDS011;17254;50.976;7.034;2023-03-22T00:18:30;10.30;;;7.60;;
30458;SDS011;17254;50.976;7.034;2023-03-22T00:18:38;10.30;;;7.60;;
30458;SDS011;17254;50.976;7.034;2023-03-22T00:18:45;10.30;;;7.47;;
30458;SDS011;17254;50.976;7.034;2023-03-22T00:18:51;11.07;;;7.40;;
30458;SDS011;17254;50.976;7.034;2023-03-22T00:18:57;11.20;;;7.13;;
30458;SDS011;17254;50.976;7.034;2023-03-22T00:19:03;10.90;;;6.85;;
30458;SDS011;17254;50.976;7.034;2023-03-22T00:19:12;10.73;;;7.03;;
30458;SDS011;17254;50.976;7.034;2023-03-22T00:19:18;10.10;;;7.05;;
30458;SDS011;17254;50.976;7.034;2023-03-22T00:19:24;9.60;;;7.10;;
30458;SDS011;17254;50.976;7.034;2023-03-22T00:19:30;9.27;;;7.10;;
30458;SDS011;17254;50.976;7.034;2023-03-22T00:19:38;9.25;;;6.97;;
30458;SDS011;17254;50.976;7.034;2023-03-22T00:19:46;8.98;;;6.80;;
30458;SDS011;17254;50.976;7.034;2023-03-22T00:19:53;9.17;;;7.22;;
30458;SDS011;17254;50.976;7.034;2023-03-22T00:19:59;9.43;;;7.47;;
30458;SDS011;17254;50.976;7.034;2023-03-22T00:20:06;9.97;;;7.60;;
30458;SDS011;17254;50.976;7.034;2023-03-22T00:20:13;10.62;;;7.88;;
30458;SDS011;17254;50.976;7.034;2023-03-22T00:20:19;10.88;;;7.90;;
30458;SDS011;17254;50.976;7.034;2023-03-22T00:20:28;10.17;;;7.33;;
30458;SDS011;17254;50.976;7.034;2023-03-22T00:20:34;10.43;;;7.40;;
30458;SDS011;17254;50.976;7.034;2023-03-22T00:20:46;10.67;;;7.20;;
30458;SDS011;17254;50.976;7.034;2023-03-22T00:20:53;10.56;;;7.31;;
30458;SDS011;17254;50.976;7.034;2023-03-22T00:21:02;10.70;;;7.23;;
30458;SDS011;17254;50.976;7.034;2023-03-22T00:21:09;9.40;;;7.10;;
30458;SDS011;17254;50.976;7.034;2023-03-22T00:21:16;8.97;;;7.05;;
30458;SDS011;17254;50.976;7.034;2023-03-22T00:21:22;9.73;;;7.18;;
30458;SDS011;17254;50.976;7.034;2023-03-22T00:21:28;10.73;;;7.43;;
30458;SDS011;17254;50.976;7.034;2023-03-22T00:21:35;11.10;;;7.40;;
30458;SDS011;17254;50.976;7.034;2023-03-22T00:21:41;11.10;;;7.40;;
30458;SDS011;17254;50.976;7.034;2023-03-22T00:21:47;11.17;;;7.50;;
30458;SDS011;17254;50.976;7.034;2023-03-22T00:21:55;10.23;;;7.37;;
30458;SDS011;17254;50.976;7.034;2023-03-22T00:22:01;9.67;;;7.23;;
30458;SDS011;17254;50.976;7.034;2023-03-22T00:22:07;9.40;;;7.30;;
30458;SDS011;17254;50.976;7.034;2023-03-22T00:22:15;9.43;;;7.37;;
30458;SDS011;17254;50.976;7.034;2023-03-22T00:22:22;9.93;;;7.32;;
30458;SDS011;17254;50.976;7.034;2023-03-22T00:22:29;9.83;;;7.13;;
30458;SDS011;17254;50.976;7.034;2023-03-22T00:22:35;10.45;;;7.18;;
30458;SDS011;17254;50.976;7.034;2023-03-22T00:22:42;10.90;;;7.28;;
30458;SDS011;17254;50.976;7.034;2023-03-22T00:22:48;12.03;;;7.77;;
30458;SDS011;17254;50.976;7.034;2023-03-22T00:22:55;11.73;;;8.13;;
30458;SDS011;17254;50.976;7.034;2023-03-22T00:23:01;11.90;;;8.20;;
30458;SDS011;17254;50.976;7.034;2023-03-22T00:23:07;11.70;;;8.30;;
30458;SDS011;17254;50.976;7.034;2023-03-22T00:23:13;11.00;;;8.17;;
30458;SDS011;17254;50.976;7.034;2023-03-22T00:23:19;10.57;;;8.03;;
30458;SDS011;17254;50.976;7.034;2023-03-22T00:23:26;10.35;;;8.02;;
30458;SDS011;17254;50.976;7.034;2023-03-22T00:23:33;9.80;;;8.03;;
30458;SDS011;17254;50.976;7.034;2023-03-22T00:23:39;10.70;;;8.00;;
30458;SDS011;17254;50.976;7.034;2023-03-22T00:23:45;10.58;;;7.70;;
30458;SDS011;17254;50.976;7.034;2023-03-22T00:23:52;10.77;;;7.63;;
30458;SDS011;17254;50.976;7.034;2023-03-22T00:23:58;11.17;;;7.50;;
30458;SDS011;17254;50.976;7.034;2023-03-22T00:24:04;11.27;;;7.57;;
30458;SDS011;17254;50.976;7.034;2023-03-22T00:24:11;10.60;;;7.70;;
30458;SDS011;17254;50.976;7.034;2023-03-22T00:24:17;11.30;;;8.00;;
30458;SDS011;17254;50.976;7.034;2023-03-22T00:24:25;10.87;;;8.00;;
30458;SDS011;17254;50.976;7.034;2023-03-22T00:24:31;11.10;;;7.90;;
30458;SDS011;17254;50.976;7.034;2023-03-22T00:24:37;10.52;;;8.00;;
30458;SDS011;17254;50.976;7.034;2023-03-22T00:24:43;10.48;;;7.72;;
30458;SDS011;17254;50.976;7.034;2023-03-22T00:24:49;10.20;;;7.45;;
30458;SDS011;17254;50.976;7.034;2023-03-22T00:24:55;10.35;;;7.32;;
30458;SDS011;17254;50.976;7.034;2023-03-22T00:25:01;9.75;;;7.35;;
30458;SDS011;17254;50.976;7.034;2023-03-22T00:25:07;11.03;;;7.30;;
30458;SDS011;17254;50.976;7.034;2023-03-22T00:25:14;11.10;;;7.60;;
30458;SDS011;17254;50.976;7.034;2023-03-22T00:25:21;11.40;;;7.67;;
30458;SDS011;17254;50.976;7.034;2023-03-22T00:25:27;11.13;;;7.85;;
30458;SDS011;17254;50.976;7.034;2023-03-22T00:25:33;11.10;;;8.00;;
30458;SDS011;17254;50.976;7.034;2023-03-22T00:25:39;11.40;;;7.93;;
30458;SDS011;17254;50.976;7.034;2023-03-22T00:25:45;11.67;;;7.83;;
30458;SDS011;17254;50.976;7.034;2023-03-22T00:25:51;12.26;;;7.86;;
30458;SDS011;17254;50.976;7.034;2023-03-22T00:25:58;12.80;;;7.75;;
30458;SDS011;17254;50.976;7.034;2023-03-22T00:26:05;12.70;;;7.60;;
30458;SDS011;17254;50.976;7.034;2023-03-22T00:26:12;11.67;;;7.63;;
30458;SDS011;17254;50.976;7.034;2023-03-22T00:26:19;11.32;;;7.92;;
30458;SDS011;17254;50.976;7.034;2023-03-22T00:26:25;10.90;;;7.97;;
30458;SDS011;17254;50.976;7.034;2023-03-22T00:26:32;10.18;;;7.82;;
30458;SDS011;17254;50.976;7.034;2023-03-22T00:26:37;10.13;;;7.80;;
30458;SDS011;17254;50.976;7.034;2023-03-22T00:26:44;10.20;;;7.76;;
30458;SDS011;17254;50.976;7.034;2023-03-22T00:26:52;10.34;;;7.62;;
30458;SDS011;17254;50.976;7.034;2023-03-22T00:26:58;10.13;;;7.68;;
30458;SDS011;17254;50.976;7.034;2023-03-22T00:27:04;10.10;;;7.70;;
30458;SDS011;17254;50.976;7.034;2023-03-22T00:27:10;10.00;;;7.65;;
30458;SDS011;17254;50.976;7.034;2023-03-22T00:27:17;10.00;;;7.67;;
30458;SDS011;17254;50.976;7.034;2023-03-22T00:27:23;9.82;;;7.57;;
30458;SDS011;17254;50.976;7.034;2023-03-22T00:27:29;10.45;;;7.53;;
30458;SDS011;17254;50.976;7.034;2023-03-22T00:27:35;10.45;;;7.57;;
30458;SDS011;17254;50.976;7.034;2023-03-22T00:27:41;10.65;;;7.55;;
30458;SDS011;17254;50.976;7.034;2023-03-22T00:27:47;10.73;;;7.53;;
30458;SDS011;17254;50.976;7.034;2023-03-22T00:27:53;12.15;;;7.38;;
30458;SDS011;17254;50.976;7.034;2023-03-22T00:28:00;12.06;;;7.56;;
30458;SDS011;17254;50.976;7.034;2023-03-22T00:28:06;12.10;;;7.65;;
30458;SDS011;17254;50.976;7.034;2023-03-22T00:28:13;12.57;;;7.63;;
30458;SDS011;17254;50.976;7.034;2023-03-22T00:28:20;12.33;;;7.87;;
30458;SDS011;17254;50.976;7.034;2023-03-22T00:28:26;11.67;;;7.90;;
30458;SDS011;17254;50.976;7.034;2023-03-22T00:28:33;11.23;;;7.63;;
30458;SDS011;17254;50.976;7.034;2023-03-22T00:28:39;10.88;;;7.43;;
30458;SDS011;17254;50.976;7.034;2023-03-22T00:28:46;11.83;;;7.57;;
30458;SDS011;17254;50.976;7.034;2023-03-22T00:28:52;11.60;;;7.40;;
30458;SDS011;17254;50.976;7.034;2023-03-22T00:28:58;11.80;;;7.50;;
30458;SDS011;17254;50.976;7.034;2023-03-22T00:29:04;12.57;;;7.93;;
30458;SDS011;17254;50.976;7.034;2023-03-22T00:29:10;12.77;;;7.97;;
30458;SDS011;17254;50.976;7.034;2023-03-22T00:29:20;11.69;;;8.07;;
30458;SDS011;17254;50.976;7.034;2023-03-22T00:29:28;12.63;;;8.13;;
30458;SDS011;17254;50.976;7.034;2023-03-22T00:29:34;12.27;;;7.90;;
30458;SDS011;17254;50.976;7.034;2023-03-22T00:29:40;11.52;;;7.68;;
30458;SDS011;17254;50.976;7.034;2023-03-22T00:29:47;11.28;;;7.50;;
30458;SDS011;17254;50.976;7.034;2023-03-22T00:29:55;10.30;;;7.47;;
30458;SDS011;17254;50.976;7.034;2023-03-22T00:30:01;11.05;;;7.53;;
30458;SDS011;17254;50.976;7.034;2023-03-22T00:30:08;11.63;;;7.63;;
30458;SDS011;17254;50.976;7.034;2023-03-22T00:30:15;11.63;;;7.87;;
30458;SDS011;17254;50.976;7.034;2023-03-22T00:30:21;10.93;;;7.60;;
30458;SDS011;17254;50.976;7.034;2023-03-22T00:30:27;10.20;;;7.55;;
30458;SDS011;17254;50.976;7.034;2023-03-22T00:30:33;9.35;;;7.63;;
30458;SDS011;17254;50.976;7.034;2023-03-22T00:30:39;9.30;;;7.50;;
30458;SDS011;17254;50.976;7.034;2023-03-22T00:30:53;9.57;;;7.30;;
30458;SDS011;17254;50.976;7.034;2023-03-22T00:31:05;10.48;;;7.32;;
30458;SDS011;17254;50.976;7.034;2023-03-22T00:31:11;11.05;;;7.40;;
30458;SDS011;17254;50.976;7.034;2023-03-22T00:31:17;10.93;;;7.40;;
30458;SDS011;17254;50.976;7.034;2023-03-22T00:31:24;11.07;;;7.23;;
30458;SDS011;17254;50.976;7.034;2023-03-22T00:31:30;10.00;;;7.30;;
30458;SDS011;17254;50.976;7.034;2023-03-22T00:31:36;10.40;;;7.40;;
30458;SDS011;17254;50.976;7.034;2023-03-22T00:31:42;10.13;;;7.38;;
30458;SDS011;17254;50.976;7.034;2023-03-22T00:31:48;11.38;;;7.55;;
30458;SDS011;17254;50.976;7.034;2023-03-22T00:31:56;11.03;;;7.43;;
30458;SDS011;17254;50.976;7.034;2023-03-22T00:32:03;11.20;;;7.40;;
30458;SDS011;17254;50.976;7.034;2023-03-22T00:32:10;10.76;;;7.42;;
30458;SDS011;17254;50.976;7.034;2023-03-22T00:32:16;9.65;;;7.30;;
30458;SDS011;17254;50.976;7.034;2023-03-22T00:32:22;9.70;;;7.33;;
30458;SDS011;17254;50.976;7.034;2023-03-22T00:32:28;10.16;;;7.46;;
30458;SDS011;17254;50.976;7.034;2023-03-22T00:32:34;10.20;;;7.35;;
30458;SDS011;17254;50.976;7.034;2023-03-22T00:32:40;10.43;;;7.27;;
30458;SDS011;17254;50.976;7.034;2023-03-22T00:32:46;10.82;;;7.35;;
30458;SDS011;17254;50.976;7.034;2023-03-22T00:32:52;10.47;;;7.43;;
30458;SDS011;17254;50.976;7.034;2023-03-22T00:32:58;9.47;;;7.33;;
30458;SDS011;17254;50.976;7.034;2023-03-22T00:33:04;9.45;;;7.40;;
30458;SDS011;17254;50.976;7.034;2023-03-22T00:33:10;9.60;;;7.43;;
30458;SDS011;17254;50.976;7.034;2023-03-22T00:33:16;10.32;;;7.50;;
30458;SDS011;17254;50.976;7.034;2023-03-22T00:33:22;9.93;;;7.53;;
30458;SDS011;17254;50.976;7.034;2023-03-22T00:33:29;10.16;;;7.68;;
30458;SDS011;17254;50.976;7.034;2023-03-22T00:33:36;10.07;;;7.60;;
30458;SDS011;17254;50.976;7.034;2023-03-22T00:33:43;10.16;;;7.74;;
30458;SDS011;17254;50.976;7.034;2023-03-22T00:33:49;9.57;;;7.70;;
30458;SDS011;17254;50.976;7.034;2023-03-22T00:33:55;9.73;;;7.57;;
30458;SDS011;17254;50.976;7.034;2023-03-22T00:34:01;10.13;;;7.83;;
30458;SDS011;17254;50.976;7.034;2023-03-22T00:34:07;10.33;;;8.00;;
30458;SDS011;17254;50.976;7.034;2023-03-22T00:34:13;10.20;;;7.90;;
30458;SDS011;17254;50.976;7.034;2023-03-22T00:34:19;10.13;;;7.80;;
30458;SDS011;17254;50.976;7.034;2023-03-22T00:34:26;10.32;;;7.82;;
30458;SDS011;17254;50.976;7.034;2023-03-22T00:34:35;10.18;;;7.70;;
30458;SDS011;17254;50.976;7.034;2023-03-22T00:34:41;9.63;;;7.78;;
30458;SDS011;17254;50.976;7.034;2023-03-22T00:34:47;9.57;;;7.90;;
30458;SDS011;17254;50.976;7.034;2023-03-22T00:34:53;9.57;;;7.97;;
30458;SDS011;17254;50.976;7.034;2023-03-22T00:34:59;9.80;;;8.18;;
30458;SDS011;17254;50.976;7.034;2023-03-22T00:35:07;10.48;;;8.10;;
30458;SDS011;17254;50.976;7.034;2023-03-22T00:35:14;11.17;;;8.38;;
30458;SDS011;17254;50.976;7.034;2023-03-22T00:35:20;11.30;;;8.43;;
30458;SDS011;17254;50.976;7.034;2023-03-22T00:35:26;11.37;;;8.23;;
30458;SDS011;17254;50.976;7.034;2023-03-22T00:35:32;11.15;;;8.15;;
30458;SDS011;17254;50.976;7.034;2023-03-22T00:35:38;11.05;;;8.05;;
30458;SDS011;17254;50.976;7.034;2023-03-22T00:35:47;10.07;;;7.53;;
30458;SDS011;17254;50.976;7.034;2023-03-22T00:35:56;10.03;;;7.40;;
30458;SDS011;17254;50.976;7.034;2023-03-22T00:36:04;10.24;;;7.77;;
30458;SDS011;17254;50.976;7.034;2023-03-22T00:36:11;10.25;;;7.82;;
30458;SDS011;17254;50.976;7.034;2023-03-22T00:36:18;10.70;;;8.10;;
30458;SDS011;17254;50.976;7.034;2023-03-22T00:36:24;10.87;;;8.10;;
30458;SDS011;17254;50.976;7.034;2023-03-22T00:36:30;10.44;;;8.04;;
30458;SDS011;17254;50.976;7.034;2023-03-22T00:36:36;10.50;;;7.90;;
30458;SDS011;17254;50.976;7.034;2023-03-22T00:36:43;10.03;;;7.87;;
30458;SDS011;17254;50.976;7.034;2023-03-22T00:36:49;10.25;;;7.88;;
30458;SDS011;17254;50.976;7.034;2023-03-22T00:36:56;10.02;;;7.82;;
30458;SDS011;17254;50.976;7.034;2023-03-22T00:37:02;9.70;;;7.65;;
30458;SDS011;17254;50.976;7.034;2023-03-22T00:37:08;9.68;;;7.57;;
30458;SDS011;17254;50.976;7.034;2023-03-22T00:37:14;10.02;;;7.40;;
30458;SDS011;17254;50.976;7.034;2023-03-22T00:37:20;10.82;;;7.63;;
30458;SDS011;17254;50.976;7.034;2023-03-22T00:37:26;11.38;;;7.72;;
30458;SDS011;17254;50.976;7.034;2023-03-22T00:37:38;11.77;;;7.86;;
30458;SDS011;17254;50.976;7.034;2023-03-22T00:37:44;11.60;;;7.97;;
30458;SDS011;17254;50.976;7.034;2023-03-22T00:37:50;10.60;;;7.93;;
30458;SDS011;17254;50.976;7.034;2023-03-22T00:37:56;10.55;;;7.90;;
30458;SDS011;17254;50.976;7.034;2023-03-22T00:38:02;10.78;;;7.92;;
30458;SDS011;17254;50.976;7.034;2023-03-22T00:38:10;10.75;;;7.97;;
30458;SDS011;17254;50.976;7.034;2023-03-22T00:38:18;11.50;;;8.12;;
30458;SDS011;17254;50.976;7.034;2023-03-22T00:38:24;11.97;;;8.10;;
30458;SDS011;17254;50.976;7.034;2023-03-22T00:38:38;11.49;;;8.23;;
30458;SDS011;17254;50.976;7.034;2023-03-22T00:38:44;11.57;;;8.25;;
30458;SDS011;17254;50.976;7.034;2023-03-22T00:38:52;11.23;;;8.38;;
30458;SDS011;17254;50.976;7.034;2023-03-22T00:38:58;11.67;;;8.41;;
30458;SDS011;17254;50.976;7.034;2023-03-22T00:39:05;11.87;;;8.33;;
30458;SDS011;17254;50.976;7.034;2023-03-22T00:39:12;11.70;;;8.36;;
30458;SDS011;17254;50.976;7.034;2023-03-22T00:39:18;11.95;;;8.38;;
30458;SDS011;17254;50.976;7.034;2023-03-22T00:39:24;12.10;;;8.18;;
30458;SDS011;17254;50.976;7.034;2023-03-22T00:39:31;11.52;;;8.10;;
30458;SDS011;17254;50.976;7.034;2023-03-22T00:39:37;11.43;;;7.97;;
30458;SDS011;17254;50.976;7.034;2023-03-22T00:39:44;10.86;;;7.60;;
30458;SDS011;17254;50.976;7.034;2023-03-22T00:39:50;11.07;;;7.57;;